Terminal Aerodrome Forecast
Issued by NWS

Home | Current Version | Previous Version | Text Only | Print | Product List | Glossary On
Versions: 1 2 3 4 5 6 7 8 9 10 11 12 13 14 15 16 17 18 19 20 21 22 23 24 25 26 27 28 29
166
FTUS41 KOKX 222208 AAC
TAFHPN
TAF AMD
KHPN 222208Z 2222/2318 10010KT 2SM BR OVC005
     FM230300 10005KT 1SM BR OVC005
     FM230800 13004KT 5SM -SHRA BR OVC005 WS020/20035KT
     FM231100 15006KT 3SM SHRA BR OVC005 WS020/20045KT
     FM231300 16009KT 3SM SHRA BR OVC009 WS020/20050KT
     FM231400 17011G20KT 3SM SHRA BR OVC012 WS020/20050KT
      AMD NOT SKED=

USA.gov is the U.S. government's official web portal to all federal, state and local government web resources and services.